Time;durP1;ratioP1;P1;durP2;ratioP2;P2;SDS_P1;SDS_P2;PMS_P1;PMS_P2;Temp;Humidity;BMP_temperature;BMP_pressure;BME280_temperature;BME280_humidity;BME280_pressure;Samples;Min_cycle;Max_cycle;Signal;HPM_P1;HPM_P2
2023/03/05 00:02:03;;;;;;;0.00;0.00;;;4.10;99.90;;;;;;5114116;28;20048;-82
2023/03/05 00:04:28;;;;;;;0.00;0.00;;;4.10;99.90;;;;;;5113273;28;20052;-82
2023/03/05 00:06:54;;;;;;;0.20;0.20;;;4.20;99.90;;;;;;5113344;28;20062;-82
2023/03/05 00:09:20;;;;;;;0.00;0.00;;;4.10;99.90;;;;;;5096688;28;20134;-82
2023/03/05 00:11:46;;;;;;;0.00;0.00;;;4.20;99.90;;;;;;5095546;28;20495;-82
2023/03/05 00:14:12;;;;;;;0.00;0.00;;;4.20;99.90;;;;;;5079677;28;20054;-82
2023/03/05 00:16:38;;;;;;;0.00;0.00;;;4.20;99.90;;;;;;5096138;28;20047;-82
2023/03/05 00:19:04;;;;;;;10.43;0.38;;;4.20;99.90;;;;;;5113150;28;20384;-82
2023/03/05 00:21:31;;;;;;;0.00;0.00;;;4.20;99.90;;;;;;5096921;28;20036;-82
2023/03/05 00:24:00;;;;;;;0.00;0.00;;;4.20;99.90;;;;;;5096384;28;20059;-82
2023/03/05 00:26:27;;;;;;;0.00;0.00;;;4.20;99.90;;;;;;5113886;28;20414;-82
2023/03/05 00:28:55;;;;;;;0.00;0.00;;;4.30;99.90;;;;;;5079601;28;20039;-82
2023/03/05 00:31:23;;;;;;;0.08;0.08;;;4.20;99.90;;;;;;5112685;28;20130;-82
2023/03/05 00:33:54;;;;;;;0.00;0.00;;;4.20;99.90;;;;;;5112946;28;20047;-82
2023/03/05 00:36:20;;;;;;;0.00;0.00;;;4.20;99.90;;;;;;5079355;28;20046;-82
2023/03/05 00:38:46;;;;;;;0.00;0.00;;;4.20;99.90;;;;;;5062524;28;20051;-81
2023/03/05 00:41:12;;;;;;;0.00;0.00;;;4.20;99.90;;;;;;5095579;28;20556;-82
2023/03/05 00:43:38;;;;;;;0.00;0.00;;;4.20;99.90;;;;;;5095397;28;20044;-82
2023/03/05 00:46:04;;;;;;;0.00;0.00;;;4.20;99.90;;;;;;5096002;28;20087;-82
2023/03/05 00:48:29;;;;;;;0.00;0.00;;;4.20;99.90;;;;;;5095572;28;20176;-82
2023/03/05 00:50:55;;;;;;;0.00;0.00;;;4.20;99.90;;;;;;5112154;28;20051;-82
2023/03/05 00:53:21;;;;;;;0.70;0.22;;;4.20;99.90;;;;;;5095504;28;20040;-82
2023/03/05 00:55:47;;;;;;;0.00;0.00;;;4.20;99.90;;;;;;5078976;28;20047;-82
2023/03/05 00:58:13;;;;;;;0.32;0.10;;;4.10;99.90;;;;;;5112453;28;20039;-82
2023/03/05 01:00:39;;;;;;;0.08;0.08;;;4.10;99.90;;;;;;5079145;28;20044;-82
2023/03/05 01:03:04;;;;;;;0.77;0.00;;;4.10;99.90;;;;;;5095833;28;20126;-81
2023/03/05 01:05:30;;;;;;;0.00;0.00;;;4.10;99.90;;;;;;5095699;28;20444;-81
2023/03/05 01:07:56;;;;;;;0.00;0.00;;;4.10;99.90;;;;;;5062490;28;20052;-82
2023/03/05 01:10:25;;;;;;;0.00;0.00;;;4.10;99.90;;;;;;5099007;28;20035;-82
2023/03/05 01:12:52;;;;;;;0.00;0.00;;;4.10;99.90;;;;;;5116688;28;20043;-81
2023/03/05 01:15:18;;;;;;;0.00;0.00;;;4.20;99.90;;;;;;5099803;28;20124;-82
2023/03/05 01:17:43;;;;;;;0.25;0.25;;;4.10;99.90;;;;;;5099382;28;20051;-81
2023/03/05 01:20:12;;;;;;;0.00;0.00;;;4.10;99.90;;;;;;5100151;28;20047;-81
2023/03/05 01:22:39;;;;;;;0.00;0.00;;;4.10;99.90;;;;;;5116321;28;20043;-82
2023/03/05 01:25:05;;;;;;;0.00;0.00;;;4.10;99.90;;;;;;5099315;28;20043;-82
2023/03/05 01:27:31;;;;;;;0.00;0.00;;;4.10;99.90;;;;;;5117037;28;20092;-82
2023/03/05 01:29:56;;;;;;;0.00;0.00;;;4.10;99.90;;;;;;5066001;28;20483;-82
2023/03/05 01:32:22;;;;;;;0.00;0.00;;;4.10;99.90;;;;;;5116890;28;20066;-82
2023/03/05 01:34:48;;;;;;;0.00;0.00;;;4.10;99.90;;;;;;5099081;28;20047;-82
2023/03/05 01:37:13;;;;;;;0.00;0.00;;;4.00;99.90;;;;;;5082208;28;20051;-82
2023/03/05 01:39:39;;;;;;;0.35;0.35;;;4.10;99.90;;;;;;5098416;28;20047;-81
2023/03/05 01:42:06;;;;;;;0.00;0.00;;;4.10;99.90;;;;;;5082009;28;20109;-82
2023/03/05 01:44:32;;;;;;;1.55;0.00;;;4.10;99.90;;;;;;5116096;28;20043;-82
2023/03/05 01:46:58;;;;;;;2.20;0.20;;;4.00;99.90;;;;;;5115764;28;20040;-82
2023/03/05 01:49:27;;;;;;;0.00;0.00;;;4.00;99.90;;;;;;5082118;28;20482;-82
2023/03/05 01:52:05;;;;;;;0.00;0.00;;;4.00;99.90;;;;;;5098732;28;20047;-82
2023/03/05 01:54:55;;;;;;;0.00;0.00;;;4.00;99.90;;;;;;5115956;28;20043;-82
2023/03/05 01:57:38;;;;;;;0.00;0.00;;;4.00;99.90;;;;;;5098623;28;20059;-82
2023/03/05 02:00:26;;;;;;;0.00;0.00;;;4.00;99.90;;;;;;5098586;28;20479;-82
2023/03/05 02:02:53;;;;;;;0.03;0.00;;;4.00;99.90;;;;;;5115234;28;20088;-82
2023/03/05 02:05:33;;;;;;;0.00;0.00;;;3.90;99.90;;;;;;5081983;28;20087;-81
2023/03/05 02:08:01;;;;;;;0.00;0.00;;;3.80;99.90;;;;;;5116345;28;20044;-82
2023/03/05 02:10:48;;;;;;;0.00;0.00;;;3.80;99.90;;;;;;5098922;28;20047;-82
2023/03/05 02:13:20;;;;;;;0.00;0.00;;;3.70;99.90;;;;;;5114207;28;20048;-82
2023/03/05 02:15:46;;;;;;;0.00;0.00;;;3.60;99.90;;;;;;5098369;28;20510;-82
2023/03/05 02:18:12;;;;;;;0.00;0.00;;;3.60;99.90;;;;;;5098266;28;20124;-82
2023/03/05 02:20:48;;;;;;;0.00;0.00;;;3.70;99.90;;;;;;5097509;28;20051;-82
2023/03/05 02:23:14;;;;;;;0.00;0.00;;;3.60;99.90;;;;;;5115141;28;20078;-82
2023/03/05 02:25:40;;;;;;;0.00;0.00;;;3.60;99.90;;;;;;5115106;28;20105;-82
2023/03/05 02:28:19;;;;;;;0.00;0.00;;;3.50;99.90;;;;;;5098083;28;20105;-82
2023/03/05 02:30:45;;;;;;;0.88;0.60;;;3.60;99.90;;;;;;5114764;28;20046;-82
2023/03/05 02:33:13;;;;;;;0.03;0.03;;;3.40;99.90;;;;;;5098181;28;20506;-82
2023/03/05 02:35:39;;;;;;;0.00;0.00;;;3.40;99.90;;;;;;5115145;28;20042;-82
2023/03/05 02:38:05;;;;;;;0.00;0.00;;;3.40;99.90;;;;;;5114548;28;20051;-81
2023/03/05 02:40:31;;;;;;;0.00;0.00;;;3.30;99.90;;;;;;5114649;28;20058;-82
2023/03/05 02:42:56;;;;;;;0.00;0.00;;;3.30;99.90;;;;;;5098047;28;20089;-82
2023/03/05 02:45:22;;;;;;;0.00;0.00;;;3.30;99.90;;;;;;5097737;28;20047;-82
2023/03/05 02:47:48;;;;;;;0.00;0.00;;;3.30;99.90;;;;;;5115348;28;20138;-82
2023/03/05 02:50:13;;;;;;;0.00;0.00;;;3.30;99.90;;;;;;5080614;28;20398;-82
2023/03/05 02:52:39;;;;;;;0.00;0.00;;;3.20;99.90;;;;;;5080317;28;20050;-81
2023/03/05 02:55:05;;;;;;;0.00;0.00;;;3.30;99.90;;;;;;5097778;28;20040;-82
2023/03/05 02:57:31;;;;;;;0.00;0.00;;;3.30;99.90;;;;;;5080996;28;20048;-82
2023/03/05 02:59:56;;;;;;;0.00;0.00;;;3.30;99.90;;;;;;5098291;28;20459;-82
2023/03/05 03:02:22;;;;;;;0.00;0.00;;;3.30;99.90;;;;;;5081345;28;20089;-82
2023/03/05 03:04:48;;;;;;;0.13;0.13;;;3.30;99.90;;;;;;5097682;28;20551;-82
2023/03/05 03:07:15;;;;;;;0.00;0.00;;;3.40;99.90;;;;;;5097204;28;20051;-81
2023/03/05 03:09:44;;;;;;;0.00;0.00;;;3.30;99.90;;;;;;5097149;28;20044;-82
2023/03/05 03:12:11;;;;;;;0.00;0.00;;;3.30;99.90;;;;;;5097353;28;20092;-82
2023/03/05 03:14:40;;;;;;;0.00;0.00;;;3.30;99.90;;;;;;5098164;28;20112;-82
2023/03/05 03:17:14;;;;;;;0.00;0.00;;;3.30;99.90;;;;;;5113801;28;20134;-82
2023/03/05 03:19:40;;;;;;;0.00;0.00;;;3.30;99.90;;;;;;5114934;28;20056;-81
2023/03/05 03:22:09;;;;;;;0.00;0.00;;;3.40;99.90;;;;;;5097131;28;20081;-82
2023/03/05 03:24:36;;;;;;;0.00;0.00;;;3.40;99.90;;;;;;5096985;28;20043;-82
2023/03/05 03:27:02;;;;;;;0.20;0.10;;;3.40;99.90;;;;;;5114837;28;20051;-82
2023/03/05 03:29:27;;;;;;;0.10;0.10;;;3.40;99.90;;;;;;5080035;28;20395;-81
2023/03/05 03:31:53;;;;;;;0.00;0.00;;;3.40;99.90;;;;;;5079603;28;20040;-82
2023/03/05 03:34:19;;;;;;;0.00;0.00;;;3.40;99.90;;;;;;5096629;28;20039;-82
2023/03/05 03:36:46;;;;;;;0.00;0.00;;;3.40;99.90;;;;;;5079692;28;20047;-82
2023/03/05 03:39:13;;;;;;;0.00;0.00;;;3.40;99.90;;;;;;5113183;28;20562;-82
2023/03/05 03:41:47;;;;;;;0.00;0.00;;;3.50;99.90;;;;;;5097776;28;20047;-82
2023/03/05 03:44:13;;;;;;;0.00;0.00;;;3.50;99.90;;;;;;5097592;28;20044;-82
2023/03/05 03:46:39;;;;;;;0.00;0.00;;;3.60;99.90;;;;;;5079788;28;20043;-82
2023/03/05 03:49:07;;;;;;;0.00;0.00;;;3.60;99.90;;;;;;5096589;28;20434;-82
2023/03/05 03:51:33;;;;;;;0.00;0.00;;;3.60;99.90;;;;;;5113659;28;20043;-82
2023/03/05 03:53:59;;;;;;;0.00;0.00;;;3.60;99.90;;;;;;5113481;28;20127;-82
2023/03/05 03:56:25;;;;;;;0.00;0.00;;;3.60;99.90;;;;;;5113546;28;20040;-82
2023/03/05 03:58:51;;;;;;;0.00;0.00;;;3.70;95.10;;;;;;5079736;28;20050;-81
2023/03/05 04:01:18;;;;;;;0.10;0.08;;;3.70;95.50;;;;;;5113977;28;20655;-82
2023/03/05 04:03:44;;;;;;;0.00;0.00;;;3.70;95.40;;;;;;5096213;28;20054;-82
2023/03/05 04:06:10;;;;;;;0.00;0.00;;;3.70;95.30;;;;;;5113582;28;20048;-82
2023/03/05 04:08:35;;;;;;;0.10;0.10;;;3.70;94.00;;;;;;5114096;28;20040;-81
2023/03/05 04:11:02;;;;;;;0.00;0.00;;;3.70;93.90;;;;;;5078910;28;20039;-82
2023/03/05 04:13:28;;;;;;;0.00;0.00;;;3.70;94.20;;;;;;5096291;28;20052;-82
2023/03/05 04:15:54;;;;;;;0.00;0.00;;;3.70;93.10;;;;;;5113247;28;20044;-81
2023/03/05 04:18:20;;;;;;;0.00;0.00;;;3.60;92.40;;;;;;5097179;28;20096;-81
2023/03/05 04:20:46;;;;;;;0.00;0.00;;;3.60;91.90;;;;;;5113222;28;20107;-82
2023/03/05 04:23:12;;;;;;;0.17;0.10;;;3.60;92.00;;;;;;5079506;28;20064;-81
2023/03/05 04:25:38;;;;;;;0.00;0.00;;;3.60;91.30;;;;;;5113178;28;20039;-82
2023/03/05 04:28:03;;;;;;;0.00;0.00;;;3.60;91.60;;;;;;5096050;28;20506;-81
2023/03/05 04:30:30;;;;;;;0.00;0.00;;;3.60;92.80;;;;;;5112827;28;20040;-81
2023/03/05 04:32:56;;;;;;;0.00;0.00;;;3.50;92.90;;;;;;5096091;28;20539;-82
2023/03/05 04:35:22;;;;;;;0.00;0.00;;;3.50;93.50;;;;;;5095611;28;20135;-82
2023/03/05 04:37:47;;;;;;;0.00;0.00;;;3.60;92.40;;;;;;5113307;28;20087;-82
2023/03/05 04:40:13;;;;;;;0.00;0.00;;;3.60;93.00;;;;;;5078559;28;20056;-81
2023/03/05 04:42:39;;;;;;;0.00;0.00;;;3.60;92.70;;;;;;5112948;28;20044;-82
2023/03/05 04:45:07;;;;;;;0.00;0.00;;;3.60;92.20;;;;;;5117165;28;20066;-82
2023/03/05 04:47:33;;;;;;;0.10;0.00;;;3.50;92.10;;;;;;5117015;28;20051;-82
2023/03/05 04:49:59;;;;;;;0.20;0.20;;;3.50;93.90;;;;;;5116804;28;20052;-82
2023/03/05 04:52:25;;;;;;;0.00;0.00;;;3.50;93.70;;;;;;5083076;28;20048;-82
2023/03/05 04:54:51;;;;;;;0.00;0.00;;;3.50;93.20;;;;;;5083139;28;20106;-82
2023/03/05 04:57:17;;;;;;;0.00;0.00;;;3.50;94.40;;;;;;5117644;28;20180;-82
2023/03/05 04:59:42;;;;;;;0.00;0.00;;;3.50;94.20;;;;;;5083758;28;20040;-82
2023/03/05 05:02:08;;;;;;;0.00;0.00;;;3.50;94.40;;;;;;5100648;28;20039;-82
2023/03/05 05:04:34;;;;;;;0.00;0.00;;;3.50;95.30;;;;;;5100554;28;20075;-82
2023/03/05 05:07:01;;;;;;;0.00;0.00;;;3.50;95.50;;;;;;5117478;28;20040;-82
2023/03/05 05:09:27;;;;;;;0.00;0.00;;;3.50;95.30;;;;;;5100418;28;20039;-83
2023/03/05 05:11:53;;;;;;;0.00;0.00;;;3.50;95.70;;;;;;5083407;28;20104;-82
2023/03/05 05:14:19;;;;;;;0.00;0.00;;;3.60;96.30;;;;;;5099469;28;20055;-82
2023/03/05 05:16:45;;;;;;;0.00;0.00;;;3.50;96.30;;;;;;5116473;28;20039;-82
2023/03/05 05:19:10;;;;;;;0.00;0.00;;;3.50;96.30;;;;;;5116671;28;20058;-82
2023/03/05 05:21:36;;;;;;;0.00;0.00;;;3.50;95.80;;;;;;5116337;28;20039;-82
2023/03/05 05:24:02;;;;;;;0.00;0.00;;;3.50;95.30;;;;;;5116435;28;20488;-82
2023/03/05 05:26:28;;;;;;;0.00;0.00;;;3.50;95.50;;;;;;5099113;28;20054;-82
2023/03/05 05:28:54;;;;;;;0.00;0.00;;;3.50;96.40;;;;;;5082221;28;20047;-82
2023/03/05 05:31:20;;;;;;;0.00;0.00;;;3.40;97.00;;;;;;5066343;28;20036;-82
2023/03/05 05:33:46;;;;;;;0.00;0.00;;;3.40;97.50;;;;;;5116291;28;20047;-82
2023/03/05 05:36:14;;;;;;;0.00;0.00;;;3.50;97.90;;;;;;5099493;28;20044;-82
2023/03/05 05:38:41;;;;;;;0.00;0.00;;;3.50;98.20;;;;;;5115780;28;20135;-82
2023/03/05 05:41:10;;;;;;;0.00;0.00;;;3.50;98.30;;;;;;5098929;28;20502;-82
2023/03/05 05:43:36;;;;;;;0.00;0.00;;;3.50;98.40;;;;;;5116900;28;20383;-82
2023/03/05 05:46:04;;;;;;;0.00;0.00;;;3.50;98.40;;;;;;5099804;28;20082;-82
2023/03/05 05:48:32;;;;;;;0.00;0.00;;;3.50;98.40;;;;;;5115870;28;20083;-82
2023/03/05 05:50:59;;;;;;;0.00;0.00;;;3.50;98.60;;;;;;5098751;28;20041;-82
2023/03/05 05:53:24;;;;;;;0.00;0.00;;;3.50;98.30;;;;;;5098490;28;20051;-82
2023/03/05 05:55:51;;;;;;;0.00;0.00;;;3.50;98.20;;;;;;5081623;28;20047;-82
2023/03/05 05:58:17;;;;;;;0.00;0.00;;;3.50;98.30;;;;;;5098733;28;20510;-82
2023/03/05 06:00:43;;;;;;;0.00;0.00;;;3.50;98.70;;;;;;5098652;28;20134;-82
2023/03/05 06:03:09;;;;;;;0.00;0.00;;;3.50;99.00;;;;;;5099465;28;20051;-82
2023/03/05 06:05:34;;;;;;;0.00;0.00;;;3.50;99.00;;;;;;5116398;28;20345;-82
2023/03/05 06:08:00;;;;;;;0.00;0.00;;;3.50;99.10;;;;;;5115649;28;20054;-83
2023/03/05 06:10:26;;;;;;;0.00;0.00;;;3.50;99.50;;;;;;5082230;28;20376;-82
2023/03/05 06:12:51;;;;;;;0.00;0.00;;;3.50;99.60;;;;;;5081518;28;20051;-82
2023/03/05 06:15:18;;;;;;;0.00;0.00;;;3.60;99.50;;;;;;5098668;28;20142;-82
2023/03/05 06:17:46;;;;;;;0.00;0.00;;;3.60;99.40;;;;;;5082005;28;20050;-82
2023/03/05 06:20:12;;;;;;;0.00;0.00;;;3.50;99.40;;;;;;5065052;28;20047;-82
2023/03/05 06:22:38;;;;;;;0.00;0.00;;;3.50;99.30;;;;;;5098238;28;20040;-82
2023/03/05 06:25:05;;;;;;;0.00;0.00;;;3.60;99.00;;;;;;5098160;28;20445;-82
2023/03/05 06:27:32;;;;;;;0.00;0.00;;;3.40;98.90;;;;;;5114996;28;20105;-82
2023/03/05 06:29:58;;;;;;;0.10;0.00;;;3.40;98.90;;;;;;5097947;28;20079;-82
2023/03/05 06:32:24;;;;;;;0.00;0.00;;;3.40;98.70;;;;;;5098029;28;20085;-82
2023/03/05 06:34:50;;;;;;;0.00;0.00;;;3.30;98.20;;;;;;5115250;28;20043;-82
2023/03/05 06:37:16;;;;;;;0.00;0.00;;;3.40;98.10;;;;;;5098052;28;20043;-82
2023/03/05 06:39:41;;;;;;;0.00;0.00;;;3.40;97.80;;;;;;5114307;28;20502;-82
2023/03/05 06:42:07;;;;;;;0.00;0.00;;;3.30;98.60;;;;;;5114763;28;20063;-82
2023/03/05 06:44:33;;;;;;;0.00;0.00;;;3.40;98.20;;;;;;5080975;28;20083;-82
2023/03/05 06:46:59;;;;;;;0.00;0.00;;;3.40;97.80;;;;;;5097730;28;20079;-82
2023/03/05 06:49:24;;;;;;;0.00;0.00;;;3.40;97.50;;;;;;5097651;28;20051;-82
2023/03/05 06:51:50;;;;;;;0.00;0.00;;;3.40;98.40;;;;;;5097943;28;20055;-82
2023/03/05 06:54:16;;;;;;;0.00;0.00;;;3.40;98.80;;;;;;5081585;28;20039;-82
2023/03/05 06:56:45;;;;;;;0.00;0.00;;;3.50;99.20;;;;;;5097351;28;20072;-82
2023/03/05 06:59:12;;;;;;;0.00;0.00;;;3.50;99.60;;;;;;5097475;28;20051;-82
2023/03/05 07:01:38;;;;;;;0.00;0.00;;;3.60;99.90;;;;;;5097389;28;20048;-82
2023/03/05 07:04:05;;;;;;;0.00;0.00;;;3.60;99.90;;;;;;5097680;28;20054;-82
2023/03/05 07:06:33;;;;;;;0.00;0.00;;;3.70;99.90;;;;;;5097148;28;20043;-82
2023/03/05 07:09:02;;;;;;;0.00;0.00;;;3.70;99.90;;;;;;5114294;28;20097;-81
2023/03/05 07:11:32;;;;;;;0.00;0.00;;;3.70;99.90;;;;;;5114213;28;20096;-80
2023/03/05 07:13:58;;;;;;;0.00;0.00;;;3.80;99.90;;;;;;5097249;28;20052;-81
2023/03/05 07:16:30;;;;;;;0.00;0.00;;;3.80;99.90;;;;;;5114195;28;20082;-81
2023/03/05 07:18:57;;;;;;;0.00;0.00;;;3.80;99.90;;;;;;5097923;28;20042;-82
2023/03/05 07:21:26;;;;;;;0.00;0.00;;;3.90;99.90;;;;;;5114142;28;20126;-84
2023/03/05 07:23:53;;;;;;;0.95;0.30;;;3.90;99.60;;;;;;5097353;28;20039;-86
2023/03/05 07:26:20;;;;;;;0.47;0.13;;;4.00;99.50;;;;;;5113944;28;20075;-81
2023/03/05 07:28:45;;;;;;;0.00;0.00;;;4.00;99.40;;;;;;5113989;28;20364;-88
2023/03/05 07:31:18;;;;;;;0.00;0.00;;;4.00;99.10;;;;;;5097611;28;20050;-82
2023/03/05 07:33:44;;;;;;;0.00;0.00;;;4.10;98.70;;;;;;5114730;28;20375;-82
2023/03/05 07:36:11;;;;;;;0.00;0.00;;;4.10;98.60;;;;;;5114565;28;20100;-82
2023/03/05 07:38:37;;;;;;;0.00;0.00;;;4.20;98.60;;;;;;5113920;28;20102;-81
2023/03/05 07:41:04;;;;;;;0.00;0.00;;;4.10;98.40;;;;;;5113619;28;20475;-82
2023/03/05 07:43:30;;;;;;;0.00;0.00;;;4.20;98.20;;;;;;5114013;28;20078;-82
2023/03/05 07:45:56;;;;;;;0.00;0.00;;;4.30;97.80;;;;;;5113783;28;20066;-82
2023/03/05 07:48:22;;;;;;;0.00;0.00;;;4.30;97.90;;;;;;5097538;28;20127;-82
2023/03/05 07:50:48;;;;;;;0.00;0.00;;;4.50;98.20;;;;;;5079553;28;20134;-82
2023/03/05 07:53:14;;;;;;;0.00;0.00;;;4.70;97.90;;;;;;5096565;28;20177;-82
2023/03/05 07:55:43;;;;;;;0.00;0.00;;;4.90;96.60;;;;;;5096140;28;20136;-82
2023/03/05 07:58:10;;;;;;;0.00;0.00;;;5.10;95.30;;;;;;5113366;28;20500;-82
2023/03/05 08:00:36;;;;;;;0.00;0.00;;;5.20;93.70;;;;;;5113438;28;20484;-82
2023/03/05 08:03:02;;;;;;;0.00;0.00;;;5.40;92.10;;;;;;5113709;28;20059;-82
2023/03/05 08:05:28;;;;;;;0.00;0.00;;;5.40;90.60;;;;;;5079624;28;20487;-82
2023/03/05 08:07:53;;;;;;;0.00;0.00;;;5.60;87.60;;;;;;5113305;28;20120;-82
2023/03/05 08:10:19;;;;;;;0.00;0.00;;;5.60;83.10;;;;;;5112780;28;20070;-82
2023/03/05 08:12:45;;;;;;;0.00;0.00;;;5.60;81.70;;;;;;5096587;28;20040;-80
2023/03/05 08:15:11;;;;;;;0.00;0.00;;;5.60;81.80;;;;;;5113200;28;20065;-83
2023/03/05 08:17:36;;;;;;;0.00;0.00;;;5.70;82.70;;;;;;5096448;28;20403;-82
2023/03/05 08:20:04;;;;;;;0.00;0.00;;;5.80;82.80;;;;;;5119740;28;20040;-82
2023/03/05 08:22:33;;;;;;;0.00;0.00;;;6.10;83.40;;;;;;5087059;28;20052;-82
2023/03/05 08:25:00;;;;;;;0.00;0.00;;;6.30;78.60;;;;;;5103814;28;20055;-82
2023/03/05 08:27:25;;;;;;;0.00;0.00;;;6.40;99.90;;;;;;5120232;28;20126;-82
2023/03/05 08:29:51;;;;;;;0.00;0.00;;;6.50;99.90;;;;;;5086756;28;20131;-82
2023/03/05 08:32:17;;;;;;;0.00;0.00;;;6.50;99.90;;;;;;5102915;28;20040;-82
2023/03/05 08:34:43;;;;;;;0.00;0.00;;;6.60;63.10;;;;;;5119873;28;20075;-82
2023/03/05 08:37:08;;;;;;;0.00;0.00;;;6.70;58.40;;;;;;5102946;28;20088;-82
2023/03/05 08:39:35;;;;;;;0.00;0.00;;;6.90;56.60;;;;;;5102357;28;20063;-83
2023/03/05 08:42:01;;;;;;;0.00;0.00;;;7.10;48.30;;;;;;5102770;28;20130;-82
2023/03/05 08:44:27;;;;;;;0.20;0.20;;;7.20;47.20;;;;;;5103783;28;20446;-82
2023/03/05 08:46:53;;;;;;;0.00;0.00;;;7.30;42.90;;;;;;5120105;28;20039;-82
2023/03/05 08:49:18;;;;;;;0.00;0.00;;;7.40;45.00;;;;;;5085706;28;20035;-82
2023/03/05 08:51:44;;;;;;;0.05;0.00;;;7.70;40.70;;;;;;5085944;28;20043;-82
2023/03/05 08:54:10;;;;;;;0.00;0.00;;;8.10;39.30;;;;;;5068883;28;20043;-82
2023/03/05 08:56:36;;;;;;;0.00;0.00;;;8.50;34.70;;;;;;5085838;28;20058;-82
2023/03/05 08:59:03;;;;;;;0.00;0.00;;;8.70;22.70;;;;;;5102939;28;20478;-82
2023/03/05 09:01:30;;;;;;;0.00;0.00;;;8.90;10.30;;;;;;5102921;28;20455;-88
2023/03/05 09:03:57;;;;;;;0.00;0.00;;;9.00;7.30;;;;;;5119539;28;20105;-82
2023/03/05 09:06:24;;;;;;;0.00;0.00;;;8.90;6.70;;;;;;5102613;28;20043;-83
2023/03/05 09:08:50;;;;;;;0.00;0.00;;;9.00;1.10;;;;;;5119592;28;20093;-82
2023/03/05 09:11:16;;;;;;;0.00;0.00;;;9.10;6.70;;;;;;5102167;28;20130;-82
2023/03/05 09:13:42;;;;;;;0.00;0.00;;;9.20;1.00;;;;;;5102627;28;20055;-82
2023/03/05 09:16:10;;;;;;;0.03;0.03;;;9.30;1.00;;;;;;5102505;28;20050;-80
2023/03/05 09:18:38;;;;;;;0.00;0.00;;;9.40;1.00;;;;;;5102439;28;20398;-82
2023/03/05 09:21:07;;;;;;;0.00;0.00;;;9.20;1.00;;;;;;5085538;28;20035;-82
2023/03/05 09:23:32;;;;;;;0.10;0.10;;;9.10;1.00;;;;;;5102427;28;20399;-83
2023/03/05 09:25:58;;;;;;;0.17;0.17;;;9.30;1.00;;;;;;5085558;28;20036;-82
2023/03/05 09:28:24;;;;;;;0.00;0.00;;;9.40;1.00;;;;;;5119101;28;20043;-82
2023/03/05 09:30:50;;;;;;;0.00;0.00;;;9.50;1.00;;;;;;5117136;28;20043;-82
2023/03/05 09:33:16;;;;;;;0.10;0.05;;;9.50;1.00;;;;;;5065730;28;20044;-83
2023/03/05 09:35:42;;;;;;;0.00;0.00;;;9.60;1.00;;;;;;5116103;28;20128;-82
2023/03/05 09:38:07;;;;;;;0.00;0.00;;;9.50;1.00;;;;;;5081891;28;20517;-83
2023/03/05 09:41:13;;;;;;;0.00;0.00;;;9.30;1.00;;;;;;5098910;28;20055;-81
2023/03/05 09:43:53;;;;;;;0.00;0.00;;;9.10;1.00;;;;;;5034213;28;20066;-81
2023/03/05 09:46:39;;;;;;;0.38;0.38;;;9.10;1.00;;;;;;5116190;28;20047;-81
2023/03/05 09:49:34;;;;;;;0.00;0.00;;;9.00;1.00;;;;;;5116210;28;20446;-82
2023/03/05 09:52:12;;;;;;;1.25;0.65;;;8.90;1.00;;;;;;5116083;28;20088;-81
2023/03/05 09:54:42;;;;;;;0.00;0.00;;;8.70;1.00;;;;;;5099090;28;20093;-81
2023/03/05 09:57:21;;;;;;;0.00;0.00;;;8.60;1.00;;;;;;5098946;28;20063;-81
2023/03/05 09:59:49;;;;;;;0.00;0.00;;;8.80;1.00;;;;;;5099032;28;20391;-81
2023/03/05 10:02:48;;;;;;;0.00;0.00;;;8.90;1.00;;;;;;5098567;28;20054;-81
2023/03/05 10:05:19;;;;;;;0.00;0.00;;;8.80;1.00;;;;;;5098374;28;20073;-81
2023/03/05 10:08:00;;;;;;;0.00;0.00;;;8.80;1.00;;;;;;5115557;28;20135;-81
2023/03/05 10:10:51;;;;;;;0.00;0.00;;;8.80;1.00;;;;;;5098595;28;20040;-81
2023/03/05 10:13:37;;;;;;;0.22;0.22;;;9.00;1.00;;;;;;5115283;28;20039;-81
2023/03/05 10:16:21;;;;;;;0.00;0.00;;;9.30;1.00;;;;;;5115647;28;20047;-81
2023/03/05 10:18:56;;;;;;;0.00;0.00;;;9.30;1.00;;;;;;5115045;28;20134;-82
2023/03/05 10:21:51;;;;;;;0.00;0.00;;;9.50;1.00;;;;;;5116127;28;20047;-82
2023/03/05 10:24:35;;;;;;;0.00;0.00;;;9.80;1.00;;;;;;5092853;28;20121;-81
2023/03/05 10:27:33;;;;;;;0.00;0.00;;;10.00;1.00;;;;;;5115171;28;20105;-81
2023/03/05 10:30:02;;;;;;;0.00;0.00;;;10.00;1.00;;;;;;5097764;28;20498;-82
2023/03/05 10:33:02;;;;;;;0.00;0.00;;;9.90;1.00;;;;;;5115507;28;20510;-82
2023/03/05 10:35:49;;;;;;;0.00;0.00;;;9.90;1.00;;;;;;5115843;28;20044;-81
2023/03/05 10:38:39;;;;;;;0.00;0.00;;;10.00;1.00;;;;;;5098201;28;20047;-81
2023/03/05 10:41:24;;;;;;;0.00;0.00;;;9.80;1.00;;;;;;5097733;28;20134;-81
2023/03/05 10:44:05;;;;;;;0.00;0.00;;;9.50;1.00;;;;;;5115114;28;20055;-81
2023/03/05 10:46:35;;;;;;;0.00;0.00;;;9.30;1.00;;;;;;5098096;28;20285;-81
2023/03/05 10:49:29;;;;;;;0.00;0.00;;;9.20;1.00;;;;;;5098600;28;20048;-81
2023/03/05 10:52:14;;;;;;;0.00;0.00;;;9.30;1.00;;;;;;5097950;28;20036;-82
2023/03/05 10:54:41;;;;;;;0.00;0.00;;;9.20;1.00;;;;;;5097935;28;20061;-82
2023/03/05 10:57:29;;;;;;;0.00;0.00;;;9.40;1.00;;;;;;5097496;28;20048;-82
2023/03/05 11:00:15;;;;;;;0.00;0.00;;;9.50;1.00;;;;;;5115366;28;20100;-82
2023/03/05 11:03:02;;;;;;;0.00;0.00;;;9.50;1.00;;;;;;5114726;28;20109;-82
2023/03/05 11:05:49;;;;;;;0.65;0.20;;;9.50;99.90;;;;;;5097256;28;20495;-81
2023/03/05 11:08:35;;;;;;;0.00;0.00;;;9.40;99.90;;;;;;5114534;28;20048;-81
2023/03/05 11:11:15;;;;;;;0.28;0.28;;;9.20;99.90;;;;;;5097242;28;20039;-81
2023/03/05 11:13:50;;;;;;;0.00;0.00;;;9.10;99.90;;;;;;5115023;28;20050;-81
2023/03/05 11:16:31;;;;;;;0.00;0.00;;;9.20;1.00;;;;;;5114119;28;20488;-81
2023/03/05 11:19:18;;;;;;;0.00;0.00;;;9.40;1.00;;;;;;5114969;28;20054;-81
2023/03/05 11:22:03;;;;;;;0.80;0.80;;;9.60;99.90;;;;;;5097499;28;20052;-81
2023/03/05 11:24:28;;;;;;;0.67;0.33;;;9.60;99.90;;;;;;5097364;28;20047;-81
2023/03/05 11:26:56;;;;;;;0.00;0.00;;;9.60;99.90;;;;;;5114707;28;20043;-81
2023/03/05 11:29:30;;;;;;;0.00;0.00;;;9.80;99.90;;;;;;5113907;28;20573;-81
2023/03/05 11:32:26;;;;;;;0.00;0.00;;;10.10;99.90;;;;;;5096700;28;20043;-81
2023/03/05 11:34:53;;;;;;;0.10;0.10;;;10.30;99.90;;;;;;5114146;28;20039;-81
2023/03/05 11:37:30;;;;;;;0.00;0.00;;;10.50;99.90;;;;;;5114579;28;20134;-82
2023/03/05 11:40:22;;;;;;;0.00;0.00;;;10.60;99.90;;;;;;5096377;28;20404;-81
2023/03/05 11:42:55;;;;;;;0.00;0.00;;;10.40;99.90;;;;;;5113941;28;20120;-82
2023/03/05 11:45:22;;;;;;;0.00;0.00;;;10.00;99.90;;;;;;5114449;28;20130;-79
2023/03/05 11:47:54;;;;;;;0.00;0.00;;;9.70;1.00;;;;;;5113185;28;20052;-80
2023/03/05 11:50:30;;;;;;;0.17;0.17;;;9.40;99.90;;;;;;5114299;28;20352;-80
2023/03/05 11:53:28;;;;;;;1.08;0.22;;;9.00;99.90;;;;;;5096254;28;20046;-80
2023/03/05 11:55:56;;;;;;;0.00;0.00;;;8.50;1.00;;;;;;5096902;28;20134;-80
2023/03/05 11:58:33;;;;;;;0.00;0.00;;;8.10;1.00;;;;;;5113687;28;20087;-80
2023/03/05 12:01:01;;;;;;;0.00;0.00;;;7.90;1.00;;;;;;5113782;28;20035;-81
2023/03/05 12:03:33;;;;;;;0.00;0.00;;;7.80;1.00;;;;;;5096350;28;20047;-85
2023/03/05 12:06:15;;;;;;;0.00;0.00;;;7.60;1.00;;;;;;5096400;28;20097;-80
2023/03/05 12:08:45;;;;;;;0.00;0.00;;;7.40;1.00;;;;;;5096684;28;20154;-81
2023/03/05 12:11:24;;;;;;;0.00;0.00;;;7.50;1.00;;;;;;5095960;28;20462;-81
2023/03/05 12:14:05;;;;;;;0.00;0.00;;;7.60;1.00;;;;;;5114185;28;20040;-81
2023/03/05 12:16:43;;;;;;;0.00;0.00;;;7.80;1.00;;;;;;5113256;28;20526;-82
2023/03/05 12:19:21;;;;;;;0.00;0.00;;;8.20;1.00;;;;;;5114058;28;20052;-82
2023/03/05 12:21:51;;;;;;;0.00;0.00;;;8.50;1.00;;;;;;5095938;28;20574;-84
2023/03/05 12:24:22;;;;;;;0.00;0.00;;;8.70;1.00;;;;;;5095955;28;20051;-84
2023/03/05 12:27:03;;;;;;;0.00;0.00;;;8.90;1.00;;;;;;5095589;28;20044;-85
2023/03/05 12:29:50;;;;;;;0.00;0.00;;;9.20;1.00;;;;;;5096731;28;20039;-80
2023/03/05 12:32:24;;;;;;;0.00;0.00;;;9.40;1.00;;;;;;5096392;28;20130;-81
2023/03/05 12:34:49;;;;;;;0.00;0.00;;;9.50;1.00;;;;;;5096037;28;20138;-81
2023/03/05 12:37:22;;;;;;;0.00;0.00;;;9.70;1.00;;;;;;5096133;28;20139;-80
2023/03/05 12:40:11;;;;;;;0.20;0.00;;;9.80;99.90;;;;;;5095507;28;20139;-80
2023/03/05 12:42:37;;;;;;;0.00;0.00;;;10.00;99.90;;;;;;5096219;28;20392;-81
2023/03/05 12:45:13;;;;;;;1.17;0.40;;;10.10;99.90;;;;;;5113766;28;20153;-80
2023/03/05 12:47:46;;;;;;;0.00;0.00;;;10.30;99.90;;;;;;5112918;28;20052;-80
2023/03/05 12:50:27;;;;;;;0.00;0.00;;;10.50;99.90;;;;;;5095906;28;20383;-81
2023/03/05 12:53:10;;;;;;;0.00;0.00;;;10.70;99.90;;;;;;5112887;28;20047;-81
2023/03/05 12:55:54;;;;;;;0.00;0.00;;;10.80;99.90;;;;;;5095887;28;20100;-81
2023/03/05 12:58:45;;;;;;;0.00;0.00;;;10.80;99.90;;;;;;5096281;28;20044;-81
2023/03/05 13:01:26;;;;;;;0.00;0.00;;;10.60;43.60;;;;;;5112818;28;20040;-80
2023/03/05 13:03:55;;;;;;;0.00;0.00;;;10.40;74.00;;;;;;5113621;28;20050;-80
2023/03/05 13:06:34;;;;;;;0.00;0.00;;;10.20;1.00;;;;;;5117172;28;20361;-81
2023/03/05 13:09:01;;;;;;;0.00;0.00;;;10.20;86.30;;;;;;5100414;28;20131;-80
2023/03/05 13:11:29;;;;;;;0.00;0.00;;;10.20;93.60;;;;;;5098921;28;20050;-81
2023/03/05 13:13:56;;;;;;;0.00;0.00;;;10.20;99.90;;;;;;5099606;28;20062;-80